Terminal Aerodrome Forecast
Issued by NWS

Home | Current Version | Previous Version | Text Only | Print | Product List | Glossary On
Versions: 1 2 3 4 5 6 7 8 9 10 11 12 13 14 15 16 17 18 19 20 21 22 23 24 25 26 27 28 29 30 31 32 33
000
FTUS45 KGJT 032336
TAFASE
TAF
KASE 032336Z 0400/0424 34010G18KT P6SM VCTS SCT080CB BKN100
      TEMPO 0400/0401 VRB20G30KT -TSRA BKN080CB
     FM040100 17006KT P6SM VCSH SCT050 BKN080
     FM040500 21005KT P6SM SCT090
     FM041400 VRB03KT P6SM FEW090
     FM041900 33010G20KT P6SM SCT110=

USA.gov is the U.S. government's official web portal to all federal, state and local government web resources and services.